Time;durP1;ratioP1;P1;durP2;ratioP2;P2;SDS_P1;SDS_P2;PMS_P1;PMS_P2;Temp;Humidity;BMP_temperature;BMP_pressure;BME280_temperature;BME280_humidity;BME280_pressure;Samples;Min_cycle;Max_cycle;Signal;HPM_P1;HPM_P2
2023/04/02 00:01:19;;;;;;;5.10;4.47;;;;;;;5.39;91.28;100085.47;5034853;28;20225;-79
2023/04/02 00:04:07;;;;;;;4.90;4.50;;;;;;;5.36;91.81;100099.31;5034631;28;20214;-79
2023/04/02 00:06:43;;;;;;;4.77;4.37;;;;;;;5.35;91.33;100107.06;5034855;28;20206;-78
2023/04/02 00:09:30;;;;;;;7.00;4.47;;;;;;;5.32;91.24;100101.91;5036905;28;20236;-78
2023/04/02 00:11:59;;;;;;;5.33;4.83;;;;;;;5.28;91.74;100116.59;5039022;28;20237;-77
2023/04/02 00:14:28;;;;;;;5.70;5.10;;;;;;;5.28;91.50;100126.94;5039453;28;20642;-77
2023/04/02 00:16:57;;;;;;;6.80;4.57;;;;;;;5.30;91.17;100122.63;5039627;28;20211;-77
2023/04/02 00:19:30;;;;;;;5.87;4.63;;;;;;;5.32;89.45;100157.13;5038748;28;20214;-78
2023/04/02 00:22:00;;;;;;;6.00;4.80;;;;;;;5.21;90.02;100174.38;5038159;28;20213;-78
2023/04/02 00:24:26;;;;;;;6.10;4.07;;;;;;;5.16;88.64;100195.09;5037919;28;20210;-77
2023/04/02 00:26:54;;;;;;;4.97;4.20;;;;;;;5.11;89.78;100203.72;5038211;28;20253;-78
2023/04/02 00:29:21;;;;;;;4.47;3.90;;;;;;;5.09;90.02;100201.13;5037963;28;20283;-78
2023/04/02 00:31:50;;;;;;;5.53;3.90;;;;;;;4.95;89.28;100216.66;5038114;28;20676;-78
2023/04/02 00:34:19;;;;;;;5.10;3.87;;;;;;;4.88;89.37;100221.84;5038582;28;20201;-77
2023/04/02 00:36:47;;;;;;;6.53;4.73;;;;;;;4.81;89.69;100227.84;5038279;28;20228;-78
2023/04/02 00:39:20;;;;;;;4.73;3.83;;;;;;;4.88;89.06;100229.59;5038672;28;20225;-78
2023/04/02 00:41:48;;;;;;;6.97;3.80;;;;;;;4.95;88.16;100252.00;5037927;28;20214;-78
2023/04/02 00:44:20;;;;;;;5.57;3.67;;;;;;;4.93;87.83;100267.50;5038436;28;20727;-78
2023/04/02 00:46:48;;;;;;;5.67;4.43;;;;;;;4.90;87.93;100270.09;5038491;28;20241;-78
2023/04/02 00:49:22;;;;;;;5.77;3.87;;;;;;;4.87;88.34;100277.00;5038535;28;20226;-78
2023/04/02 00:51:52;;;;;;;6.00;3.20;;;;;;;4.90;86.91;100301.16;5038401;28;20252;-78
2023/04/02 00:54:24;;;;;;;11.93;3.60;;;;;;;4.89;86.62;100327.00;5037866;28;20672;-78
2023/04/02 00:56:54;;;;;;;5.47;3.23;;;;;;;4.88;86.53;100320.97;5038283;28;20205;-78
2023/04/02 00:59:27;;;;;;;4.07;3.53;;;;;;;4.83;87.23;100345.94;5038261;28;20210;-78
2023/04/02 01:02:00;;;;;;;4.20;2.90;;;;;;;4.82;85.85;100349.41;5037707;28;20259;-78
2023/04/02 01:04:33;;;;;;;5.23;3.97;;;;;;;4.76;86.84;100359.72;5037682;28;20216;-78
2023/04/02 01:07:05;;;;;;;5.97;3.77;;;;;;;4.77;86.60;100361.44;5037572;28;20570;-78
2023/04/02 01:09:49;;;;;;;5.03;3.73;;;;;;;4.69;86.22;100361.41;5037839;28;20221;-78
2023/04/02 01:12:32;;;;;;;4.63;3.50;;;;;;;4.73;86.54;100360.56;5037756;28;20260;-77
2023/04/02 01:15:08;;;;;;;3.53;3.23;;;;;;;4.72;86.85;100365.75;5037663;28;20746;-78
2023/04/02 01:18:02;;;;;;;3.43;3.13;;;;;;;4.65;85.85;100372.59;5037720;28;20210;-78
2023/04/02 01:20:55;;;;;;;4.47;3.20;;;;;;;4.63;86.30;100373.47;5036160;28;20222;-78
2023/04/02 01:23:28;;;;;;;4.67;3.17;;;;;;;4.58;86.33;100389.81;5037323;28;20214;-77
2023/04/02 01:26:05;;;;;;;7.23;3.63;;;;;;;4.64;86.47;100394.16;5037219;28;20641;-78
2023/04/02 01:28:36;;;;;;;4.60;3.07;;;;;;;4.64;85.83;100390.69;5038012;28;20264;-78
2023/04/02 01:31:05;;;;;;;6.23;3.40;;;;;;;4.53;85.59;100407.00;5037299;28;20230;-78
2023/04/02 01:33:35;;;;;;;4.23;2.90;;;;;;;4.55;84.31;100425.97;5036886;28;20206;-78
2023/04/02 01:36:08;;;;;;;4.50;3.53;;;;;;;4.56;84.64;100452.72;5036848;28;20214;-78
2023/04/02 01:38:41;;;;;;;3.73;2.97;;;;;;;4.60;83.99;100463.91;5036553;28;20264;-77
2023/04/02 01:41:12;;;;;;;2.93;2.40;;;;;;;4.60;84.00;100482.00;5036905;28;20222;-78
2023/04/02 01:43:46;;;;;;;3.90;3.07;;;;;;;4.57;83.26;100508.72;5036479;28;20249;-78
2023/04/02 01:46:28;;;;;;;6.53;2.50;;;;;;;4.54;83.71;100521.63;5036220;28;20245;-78
2023/04/02 01:48:55;;;;;;;5.67;2.60;;;;;;;4.48;83.20;100525.03;5037218;28;20720;-78
2023/04/02 01:51:27;;;;;;;4.83;2.67;;;;;;;4.49;83.75;100526.75;5036822;28;20230;-78
2023/04/02 01:53:54;;;;;;;4.20;2.67;;;;;;;4.44;83.65;100538.78;5036281;28;20213;-78
2023/04/02 01:56:21;;;;;;;3.17;2.33;;;;;;;4.45;83.03;100537.06;5036790;28;20261;-78
2023/04/02 01:58:48;;;;;;;4.37;2.63;;;;;;;4.47;83.03;100550.88;5036896;28;20228;-77
2023/04/02 02:01:18;;;;;;;5.97;2.30;;;;;;;4.38;82.79;100560.28;5036510;28;20217;-77
2023/04/02 02:03:46;;;;;;;2.80;2.43;;;;;;;4.31;83.53;100557.63;5035753;28;20577;-78
2023/04/02 02:06:14;;;;;;;5.00;2.53;;;;;;;4.28;83.86;100547.25;5036344;28;20206;-78
2023/04/02 02:08:47;;;;;;;4.47;2.60;;;;;;;4.14;84.49;100554.88;5036821;28;20208;-78
2023/04/02 02:11:16;;;;;;;2.77;2.30;;;;;;;4.11;83.47;100547.97;5036207;28;20289;-78
2023/04/02 02:13:46;;;;;;;5.37;2.43;;;;;;;4.07;83.25;100558.28;5036078;28;20209;-77
2023/04/02 02:16:17;;;;;;;3.33;2.13;;;;;;;4.06;83.74;100556.53;5036446;28;20218;-77
2023/04/02 02:18:48;;;;;;;3.63;2.10;;;;;;;4.11;82.91;100584.13;5036769;28;20214;-77
2023/04/02 02:21:25;;;;;;;3.17;2.13;;;;;;;4.13;82.38;100584.16;5036287;28;20276;-78
2023/04/02 02:23:52;;;;;;;2.13;1.53;;;;;;;4.18;81.86;100600.56;5035582;28;20574;-77
2023/04/02 02:26:20;;;;;;;2.37;2.03;;;;;;;4.04;81.79;100630.56;5035929;28;20260;-78
2023/04/02 02:28:52;;;;;;;3.43;1.73;;;;;;;4.06;81.75;100640.03;5036044;28;20214;-78
2023/04/02 02:31:26;;;;;;;7.27;2.20;;;;;;;4.09;81.36;100645.25;5035537;28;20765;-77
2023/04/02 02:34:00;;;;;;;2.23;1.77;;;;;;;4.08;80.54;100671.06;5035303;28;20213;-78
2023/04/02 02:36:32;;;;;;;3.07;1.70;;;;;;;3.95;81.11;100688.16;5035773;28;20263;-78
2023/04/02 02:39:04;;;;;;;2.50;1.80;;;;;;;3.94;81.97;100683.81;5035571;28;20331;-77
2023/04/02 02:41:37;;;;;;;2.40;1.67;;;;;;;4.01;82.11;100677.03;5036233;28;20226;-77
2023/04/02 02:44:14;;;;;;;2.60;1.80;;;;;;;4.10;81.50;100682.28;5035385;28;20266;-78
2023/04/02 02:46:44;;;;;;;4.37;1.80;;;;;;;4.13;80.51;100693.53;5035681;28;20287;-77
2023/04/02 02:49:15;;;;;;;1.67;1.57;;;;;;;4.08;80.42;100720.13;5035050;28;20641;-78
2023/04/02 02:51:45;;;;;;;2.60;1.60;;;;;;;4.00;80.83;100724.34;5035642;28;20707;-77
2023/04/02 02:54:15;;;;;;;2.33;1.87;;;;;;;3.96;80.16;100726.03;5035424;28;20210;-78
2023/04/02 02:56:47;;;;;;;1.80;1.70;;;;;;;4.03;79.88;100745.06;5035313;28;20254;-78
2023/04/02 02:59:16;;;;;;;4.10;1.80;;;;;;;3.95;81.51;100737.22;5035244;28;20260;-77
2023/04/02 03:01:44;;;;;;;3.10;1.63;;;;;;;4.01;80.67;100729.53;5035027;28;20739;-78
2023/04/02 03:04:13;;;;;;;2.20;1.30;;;;;;;4.01;80.32;100751.94;5034841;28;20664;-78
2023/04/02 03:06:40;;;;;;;4.47;1.63;;;;;;;3.96;79.79;100765.66;5034915;28;20552;-78
2023/04/02 03:09:16;;;;;;;2.37;1.43;;;;;;;3.88;81.00;100771.53;5035460;28;20628;-78
2023/04/02 03:11:49;;;;;;;4.00;1.80;;;;;;;3.82;80.37;100764.56;5035606;28;20233;-77
2023/04/02 03:14:23;;;;;;;2.30;1.60;;;;;;;3.85;80.44;100782.72;5035459;28;20608;-77
2023/04/02 03:16:56;;;;;;;2.00;1.37;;;;;;;3.81;80.21;100785.22;5034986;28;20562;-78
2023/04/02 03:19:31;;;;;;;2.17;1.30;;;;;;;3.90;79.44;100793.09;5035040;28;20671;-77
2023/04/02 03:22:03;;;;;;;2.53;1.63;;;;;;;3.92;79.93;100799.16;5035455;28;20571;-78
2023/04/02 03:24:39;;;;;;;1.43;1.33;;;;;;;3.94;80.28;100810.34;5035484;28;20267;-78
2023/04/02 03:27:13;;;;;;;2.03;1.23;;;;;;;3.94;80.25;100807.78;5035538;28;20205;-78
2023/04/02 03:29:43;;;;;;;2.73;1.33;;;;;;;3.94;79.56;100816.41;5035236;28;20264;-77
2023/04/02 03:32:16;;;;;;;1.80;1.60;;;;;;;3.92;79.51;100827.56;5035399;28;20260;-78
2023/04/02 03:34:47;;;;;;;2.67;1.40;;;;;;;3.94;78.61;100838.78;5041238;28;20209;-78
2023/04/02 03:37:19;;;;;;;2.30;1.40;;;;;;;3.96;78.75;100855.16;5014958;28;20210;-78
2023/04/02 03:39:50;;;;;;;3.10;1.40;;;;;;;4.02;78.25;100869.88;5015110;28;20223;-78
2023/04/02 03:42:21;;;;;;;2.47;1.30;;;;;;;3.90;79.06;100874.00;5015038;28;20219;-78
2023/04/02 03:44:52;;;;;;;3.00;1.40;;;;;;;3.94;78.66;100873.22;5014348;28;20214;-78
2023/04/02 03:47:29;;;;;;;2.53;1.60;;;;;;;3.90;78.72;100886.91;5014368;28;20202;-78
2023/04/02 03:50:01;;;;;;;2.47;1.47;;;;;;;3.95;78.90;100892.19;5014653;28;20236;-77
2023/04/02 03:52:29;;;;;;;1.90;1.37;;;;;;;3.95;78.07;100893.03;5014553;28;20217;-78
2023/04/02 03:54:58;;;;;;;2.00;1.17;;;;;;;3.90;78.74;100899.84;5024794;28;20241;-78
2023/04/02 03:57:31;;;;;;;2.63;1.50;;;;;;;3.93;78.51;100907.63;5034846;28;20256;-77
2023/04/02 04:00:03;;;;;;;1.87;1.10;;;;;;;3.96;78.11;100918.03;5034447;28;20280;-78
2023/04/02 04:02:42;;;;;;;1.57;1.20;;;;;;;4.00;77.44;100928.41;5033836;28;20206;-77
2023/04/02 04:05:21;;;;;;;2.80;1.10;;;;;;;3.91;77.94;100953.22;5033246;28;20204;-78
2023/04/02 04:07:52;;;;;;;3.27;1.47;;;;;;;3.91;77.93;100950.66;5034376;28;20252;-78
2023/04/02 04:10:22;;;;;;;3.07;1.40;;;;;;;3.89;77.57;100972.13;5034432;28;20234;-77
2023/04/02 04:12:52;;;;;;;3.97;1.47;;;;;;;3.86;77.26;100970.34;5034232;28;20573;-77
2023/04/02 04:15:23;;;;;;;1.53;1.10;;;;;;;3.83;77.41;100979.78;5033355;28;20256;-78
2023/04/02 04:18:00;;;;;;;3.53;1.30;;;;;;;3.86;77.28;100987.56;5034130;28;20267;-78
2023/04/02 04:20:34;;;;;;;3.40;1.60;;;;;;;3.82;76.75;100999.56;5033396;28;20308;-77
2023/04/02 04:23:16;;;;;;;2.47;1.30;;;;;;;3.79;77.50;101015.00;5033683;28;20213;-78
2023/04/02 04:25:43;;;;;;;1.70;1.17;;;;;;;3.76;77.11;101012.34;5035124;28;20232;-78
2023/04/02 04:28:20;;;;;;;1.93;1.20;;;;;;;3.77;77.16;101014.97;5029257;28;20239;-78
2023/04/02 04:30:52;;;;;;;2.77;1.40;;;;;;;3.79;77.84;101015.00;5014733;28;20234;-78
2023/04/02 04:33:24;;;;;;;2.83;1.40;;;;;;;3.86;76.85;101013.38;5015174;28;20207;-78
2023/04/02 04:35:56;;;;;;;3.17;1.60;;;;;;;3.92;76.62;101034.16;5014968;28;20203;-78
2023/04/02 04:38:31;;;;;;;3.60;1.40;;;;;;;3.88;76.77;101053.88;5014662;28;20275;-78
2023/04/02 04:41:03;;;;;;;1.60;1.30;;;;;;;3.83;77.02;101058.13;5015240;28;20225;-77
2023/04/02 04:43:37;;;;;;;3.50;1.37;;;;;;;3.82;77.11;101052.91;5015104;28;20638;-77
2023/04/02 04:46:08;;;;;;;2.47;1.40;;;;;;;3.86;76.35;101058.16;5015340;28;20211;-77
2023/04/02 04:48:37;;;;;;;2.63;1.37;;;;;;;3.85;77.14;101066.75;5016147;28;20264;-77
2023/04/02 04:51:15;;;;;;;1.47;1.23;;;;;;;3.86;77.29;101065.03;5014631;28;20255;-78
2023/04/02 04:53:47;;;;;;;4.07;1.50;;;;;;;3.86;76.49;101065.03;5017093;28;20213;-78
2023/04/02 04:56:18;;;;;;;1.30;1.00;;;;;;;3.85;76.28;101078.81;5036486;28;20205;-78
2023/04/02 04:58:49;;;;;;;2.70;1.27;;;;;;;3.85;76.05;101092.59;5038583;28;20206;-77
2023/04/02 05:01:19;;;;;;;2.40;1.40;;;;;;;3.88;75.67;101102.94;5037112;28;20225;-77
2023/04/02 05:03:51;;;;;;;2.03;1.40;;;;;;;3.87;75.64;101118.44;5037145;28;20213;-77
2023/04/02 05:06:25;;;;;;;3.23;2.13;;;;;;;3.83;75.82;101139.88;5037517;28;20199;-77
2023/04/02 05:08:59;;;;;;;2.33;1.50;;;;;;;3.85;75.46;101136.47;5037261;28;20232;-77
2023/04/02 05:11:31;;;;;;;2.63;1.50;;;;;;;3.88;75.70;101144.28;5036844;28;20276;-78
2023/04/02 05:14:01;;;;;;;3.87;1.70;;;;;;;3.86;76.25;101145.09;5037450;28;20272;-77
2023/04/02 05:16:34;;;;;;;2.47;1.63;;;;;;;3.82;74.61;101144.16;5037565;28;20628;-77
2023/04/02 05:19:07;;;;;;;2.70;1.50;;;;;;;3.85;74.90;101175.22;5036133;28;20216;-78
2023/04/02 05:21:41;;;;;;;1.70;1.20;;;;;;;3.81;75.92;101188.91;5036826;28;20237;-78
2023/04/02 05:24:32;;;;;;;1.63;1.40;;;;;;;3.81;76.04;101163.09;5037185;28;20679;-77
2023/04/02 05:27:02;;;;;;;2.40;1.10;;;;;;;3.73;75.42;101181.00;5036300;28;20198;-77
2023/04/02 05:29:35;;;;;;;2.77;1.20;;;;;;;3.67;75.04;101201.53;5036330;28;20293;-77
2023/04/02 05:32:06;;;;;;;1.50;1.33;;;;;;;3.70;74.86;101196.41;5036215;28;20226;-78
2023/04/02 05:34:36;;;;;;;2.97;1.93;;;;;;;3.69;75.34;101206.72;5036346;28;20671;-78
2023/04/02 05:37:04;;;;;;;2.50;1.27;;;;;;;3.78;75.03;101196.56;5036599;28;20594;-77
2023/04/02 05:39:31;;;;;;;1.53;1.30;;;;;;;3.83;74.92;101200.16;5036733;28;20267;-77
2023/04/02 05:42:01;;;;;;;2.33;1.20;;;;;;;3.86;75.26;101215.69;5036209;28;20210;-78
2023/04/02 05:44:30;;;;;;;1.73;1.30;;;;;;;3.87;74.83;101204.53;5036814;28;20202;-77
2023/04/02 05:46:59;;;;;;;1.90;1.30;;;;;;;3.95;74.62;101220.19;5036737;28;20236;-77
2023/04/02 05:49:34;;;;;;;1.57;1.17;;;;;;;3.85;74.97;101239.78;5035766;28;20258;-78
2023/04/02 05:52:03;;;;;;;1.70;1.20;;;;;;;3.80;75.35;101232.78;5036154;28;20596;-78
2023/04/02 05:54:38;;;;;;;2.70;1.40;;;;;;;3.85;75.25;101239.78;5035444;28;20595;-76
2023/04/02 05:57:10;;;;;;;1.50;1.33;;;;;;;3.85;74.76;101236.34;5036828;28;20202;-77
2023/04/02 05:59:40;;;;;;;3.50;1.10;;;;;;;3.75;74.08;101251.63;5035859;28;20225;-77
2023/04/02 06:02:14;;;;;;;2.40;1.20;;;;;;;3.76;74.74;101261.09;5035585;28;20617;-77
2023/04/02 06:04:46;;;;;;;2.47;1.53;;;;;;;3.88;74.35;101268.25;5034681;28;20217;-77
2023/04/02 06:07:17;;;;;;;3.10;1.57;;;;;;;3.91;74.65;101281.25;5035087;28;20245;-76
2023/04/02 06:09:49;;;;;;;2.13;1.40;;;;;;;4.00;74.36;101285.72;5035708;28;20229;-78
2023/04/02 06:12:24;;;;;;;1.90;1.70;;;;;;;4.06;74.59;101282.41;5035892;28;20769;-77
2023/04/02 06:14:51;;;;;;;1.77;1.53;;;;;;;4.09;73.93;101283.34;5036957;28;20208;-78
2023/04/02 06:17:20;;;;;;;3.53;1.60;;;;;;;4.11;74.27;101296.28;5038303;28;20202;-77
2023/04/02 06:19:47;;;;;;;2.07;1.33;;;;;;;4.11;74.16;101298.88;5038067;28;20221;-78
2023/04/02 06:22:24;;;;;;;1.83;1.40;;;;;;;4.11;73.33;101307.50;5037627;28;20205;-78
2023/04/02 06:24:57;;;;;;;2.43;1.40;;;;;;;3.98;73.69;101332.19;5037991;28;20671;-77
2023/04/02 06:27:26;;;;;;;3.23;1.30;;;;;;;3.96;72.75;101353.66;5032011;28;20199;-75
2023/04/02 06:29:58;;;;;;;2.40;1.47;;;;;;;4.02;72.96;101352.91;5036850;28;20222;-78
2023/04/02 06:32:25;;;;;;;2.20;1.53;;;;;;;4.07;73.19;101372.00;5035666;28;20279;-75
2023/04/02 06:34:52;;;;;;;3.20;1.53;;;;;;;4.15;72.92;101368.72;5036490;28;20281;-78
2023/04/02 06:37:26;;;;;;;2.33;1.30;;;;;;;4.08;73.74;101392.66;5037430;28;20227;-77
2023/04/02 06:39:53;;;;;;;2.70;1.40;;;;;;;4.15;73.33;101381.66;5038567;28;20231;-77
2023/04/02 06:42:24;;;;;;;2.27;1.43;;;;;;;4.21;73.31;101385.22;5039379;28;20218;-78
2023/04/02 06:44:51;;;;;;;1.63;1.50;;;;;;;4.26;73.87;101386.19;5039494;28;20240;-78
2023/04/02 06:47:26;;;;;;;2.23;1.50;;;;;;;4.23;73.73;101378.38;5038555;28;20640;-78
2023/04/02 06:49:58;;;;;;;2.10;1.57;;;;;;;4.23;72.85;101379.25;5038939;28;20233;-77
2023/04/02 06:52:29;;;;;;;1.87;1.40;;;;;;;4.20;73.26;101398.97;5038209;28;20237;-78
2023/04/02 06:54:57;;;;;;;3.80;1.87;;;;;;;4.17;74.69;101398.06;5039124;28;20212;-78
2023/04/02 06:57:24;;;;;;;1.97;1.40;;;;;;;4.18;73.64;101388.59;5038982;28;20210;-78
2023/04/02 06:59:50;;;;;;;1.50;1.20;;;;;;;4.21;74.08;101399.00;5039496;28;20229;-78
2023/04/02 07:02:27;;;;;;;1.97;1.37;;;;;;;4.27;73.71;101404.31;5039781;28;20202;-79
2023/04/02 07:04:58;;;;;;;4.57;1.77;;;;;;;4.28;73.25;101402.59;5039095;28;20585;-79
2023/04/02 07:07:24;;;;;;;1.70;1.20;;;;;;;4.27;72.50;101414.66;5039083;28;20207;-79
2023/04/02 07:09:51;;;;;;;3.53;1.83;;;;;;;4.24;73.17;101434.38;5040887;28;20250;-78
2023/04/02 07:12:22;;;;;;;1.63;1.53;;;;;;;4.13;73.32;101445.34;5041332;28;20642;-79
2023/04/02 07:14:49;;;;;;;1.50;1.20;;;;;;;4.15;73.39;101445.38;5041227;28;20210;-78
2023/04/02 07:17:17;;;;;;;1.17;1.07;;;;;;;4.21;72.78;101447.25;5040197;28;20259;-79
2023/04/02 07:19:44;;;;;;;1.20;1.10;;;;;;;4.30;72.28;101463.84;5036523;28;20323;-79
2023/04/02 07:22:10;;;;;;;2.87;1.50;;;;;;;4.30;72.24;101484.50;5035883;28;20694;-79
2023/04/02 07:24:37;;;;;;;1.83;1.10;;;;;;;4.30;72.26;101486.19;5037045;28;20224;-79
2023/04/02 07:27:03;;;;;;;4.83;1.60;;;;;;;4.35;71.75;101492.38;5036933;28;20622;-79
2023/04/02 07:29:31;;;;;;;2.07;1.90;;;;;;;4.34;72.05;101509.59;5036416;28;20205;-79
2023/04/02 07:31:58;;;;;;;2.63;1.10;;;;;;;4.28;72.11;101516.31;4335779;28;10000710;-78
2023/04/02 07:34:24;;;;;;;1.37;1.00;;;;;;;4.31;71.72;101532.75;5028368;28;20213;-80
2023/04/02 07:36:51;;;;;;;1.67;1.57;;;;;;;4.35;71.07;101544.94;5033086;28;20209;-79
2023/04/02 07:39:17;;;;;;;1.97;1.10;;;;;;;4.42;70.55;101563.16;5032411;28;20371;-79
2023/04/02 07:41:52;;;;;;;1.50;1.20;;;;;;;4.47;71.47;101566.75;5032547;28;20220;-79
2023/04/02 07:44:18;;;;;;;1.43;1.27;;;;;;;4.41;71.81;101556.25;5032420;28;20201;-77
2023/04/02 07:46:46;;;;;;;1.47;1.37;;;;;;;4.42;71.88;101553.72;5032613;28;20206;-78
2023/04/02 07:49:12;;;;;;;1.57;1.00;;;;;;;4.49;71.67;101552.16;5033911;28;20758;-78
2023/04/02 07:51:39;;;;;;;1.40;1.13;;;;;;;4.48;72.06;101564.22;5033273;28;20233;-76
2023/04/02 07:54:08;;;;;;;1.77;1.63;;;;;;;4.56;72.10;101556.63;5031584;28;20217;-80
2023/04/02 07:56:36;;;;;;;3.40;1.47;;;;;;;4.60;71.63;101561.03;5032235;28;20214;-78
2023/04/02 07:59:03;;;;;;;3.50;1.30;;;;;;;4.59;71.13;101567.03;5011530;28;20257;-80
2023/04/02 08:01:33;;;;;;;2.03;0.87;;;;;;;4.61;70.31;101580.00;5011847;28;20284;-79
2023/04/02 08:04:02;;;;;;;1.57;1.47;;;;;;;4.56;70.58;101603.19;5012126;28;20332;-80
2023/04/02 08:06:29;;;;;;;1.43;1.20;;;;;;;4.44;71.20;101619.25;5012194;28;20206;-80
2023/04/02 08:08:56;;;;;;;1.67;1.33;;;;;;;4.51;70.90;101604.78;5011995;28;20682;-79
2023/04/02 08:11:23;;;;;;;2.10;1.17;;;;;;;4.52;70.39;101625.50;5011307;28;20226;-79
2023/04/02 08:13:49;;;;;;;2.17;1.40;;;;;;;4.51;70.89;101639.25;5011871;28;20298;-80
2023/04/02 08:16:16;;;;;;;2.37;1.30;;;;;;;4.60;70.79;101627.38;5011114;28;20265;-78
2023/04/02 08:18:42;;;;;;;1.50;1.10;;;;;;;4.56;71.87;101631.63;5011875;28;20692;-80
2023/04/02 08:21:10;;;;;;;3.37;1.63;;;;;;;4.64;71.87;101626.63;5011699;28;20258;-80
2023/04/02 08:23:37;;;;;;;1.50;1.40;;;;;;;4.75;70.65;101626.03;5011409;28;20917;-80
2023/04/02 08:26:05;;;;;;;1.60;1.50;;;;;;;4.65;71.60;101643.91;5031351;28;20664;-80
2023/04/02 08:28:31;;;;;;;3.53;1.77;;;;;;;4.75;70.48;101645.88;5030969;28;20209;-80
2023/04/02 08:30:58;;;;;;;2.80;1.63;;;;;;;4.75;71.08;101644.16;5034297;28;20257;-78
2023/04/02 08:33:24;;;;;;;2.40;1.27;;;;;;;4.81;69.94;101661.53;5034684;28;20229;-80
2023/04/02 08:35:51;;;;;;;2.43;1.30;;;;;;;4.76;70.17;101676.09;5035296;28;20214;-78
2023/04/02 08:38:21;;;;;;;1.47;1.37;;;;;;;4.73;70.13;101682.03;5034732;28;20214;-82
2023/04/02 08:40:49;;;;;;;4.03;1.30;;;;;;;4.82;69.96;101689.16;5034989;28;20236;-79
2023/04/02 08:43:37;;;;;;;1.83;1.27;;;;;;;4.80;71.38;101695.13;5035106;28;20217;-82
2023/04/02 08:46:11;;;;;;;2.20;1.10;;;;;;;4.93;71.01;101684.25;5035332;28;20213;-81
2023/04/02 08:48:40;;;;;;;1.60;1.20;;;;;;;4.96;71.63;101676.56;5035701;28;20205;-82
2023/04/02 08:51:08;;;;;;;1.93;1.63;;;;;;;4.93;70.99;101677.34;5035504;28;20230;-81
2023/04/02 08:53:38;;;;;;;2.77;1.67;;;;;;;4.87;72.06;101673.75;5035720;28;20218;-84
2023/04/02 08:56:16;;;;;;;3.60;2.13;;;;;;;4.91;71.75;101666.09;5028133;28;20212;-82
2023/04/02 08:58:44;;;;;;;1.77;1.33;;;;;;;4.95;71.87;101661.88;5033362;28;20222;-83
2023/04/02 09:01:21;;;;;;;2.37;1.37;;;;;;;4.91;71.88;101654.88;5016521;28;20230;-83
2023/04/02 09:03:50;;;;;;;3.83;1.93;;;;;;;4.92;70.88;101673.03;5016744;28;20681;-81
2023/04/02 09:06:19;;;;;;;3.03;1.67;;;;;;;4.88;72.19;101663.44;5016154;28;20269;-81
2023/04/02 09:08:50;;;;;;;1.30;1.10;;;;;;;4.96;71.16;101673.97;5015125;28;20257;-82
2023/04/02 09:11:23;;;;;;;1.63;1.50;;;;;;;5.01;71.79;101680.13;5014827;28;20746;-83
2023/04/02 09:13:55;;;;;;;1.53;1.10;;;;;;;5.04;71.34;101694.88;5015209;28;20261;-82
2023/04/02 09:16:33;;;;;;;3.43;1.63;;;;;;;5.01;72.13;101699.97;5015410;28;20279;-86
2023/04/02 09:19:08;;;;;;;2.17;1.70;;;;;;;4.95;72.74;101698.09;5015024;28;20911;-88
2023/04/02 09:21:43;;;;;;;2.67;1.60;;;;;;;5.07;72.14;101671.63;5015555;28;20280;-86
2023/04/02 09:24:12;;;;;;;2.27;1.13;;;;;;;5.13;71.92;101676.94;5015035;28;20649;-87
2023/04/02 09:26:41;;;;;;;2.40;1.37;;;;;;;5.18;71.87;101681.41;5023160;28;20676;-87
2023/04/02 09:29:31;;;;;;;3.37;1.33;;;;;;;5.23;70.84;101703.94;5034701;28;20210;-86
2023/04/02 09:32:08;;;;;;;2.77;1.63;;;;;;;5.33;70.83;101724.00;5029946;28;20265;-86
2023/04/02 09:34:36;;;;;;;2.80;1.40;;;;;;;5.25;71.84;101729.03;5018306;28;20199;-86
2023/04/02 09:37:08;;;;;;;2.40;1.63;;;;;;;5.24;71.63;101723.81;5018237;28;20241;-82
2023/04/02 09:39:36;;;;;;;1.60;1.27;;;;;;;5.24;70.93;101729.84;5017031;28;20231;-83
2023/04/02 09:42:07;;;;;;;2.67;1.70;;;;;;;5.31;69.46;101736.03;5013329;28;20261;-81
2023/04/02 09:44:34;;;;;;;2.27;1.50;;;;;;;5.34;70.30;101760.28;5013586;28;20413;-80
2023/04/02 09:47:03;;;;;;;1.83;1.50;;;;;;;5.28;71.51;101759.28;5013321;28;20211;-80
2023/04/02 09:49:32;;;;;;;2.80;1.50;;;;;;;5.36;70.75;101766.38;5013200;28;20206;-82
2023/04/02 09:52:21;;;;;;;3.67;1.80;;;;;;;5.41;71.01;101769.09;5013052;28;20206;-80
2023/04/02 09:55:17;;;;;;;2.93;1.60;;;;;;;5.43;71.41;101757.06;5019905;28;20202;-79
2023/04/02 09:57:45;;;;;;;1.50;1.40;;;;;;;5.46;70.85;101785.59;5024208;28;20269;-79
2023/04/02 10:00:20;;;;;;;1.77;1.67;;;;;;;5.50;70.69;101796.91;5013737;28;20782;-79
2023/04/02 10:02:58;;;;;;;2.00;1.87;;;;;;;5.49;69.85;101795.16;5014064;28;20315;-79
2023/04/02 10:05:26;;;;;;;1.90;1.57;;;;;;;5.55;69.49;101816.03;5013305;28;20267;-78
2023/04/02 10:07:54;;;;;;;2.10;1.50;;;;;;;5.50;69.54;101843.53;5013364;28;20217;-79
2023/04/02 10:10:28;;;;;;;2.00;1.17;;;;;;;5.53;70.20;101844.50;5013728;28;20233;-79
2023/04/02 10:12:59;;;;;;;3.03;1.80;;;;;;;5.54;69.42;101853.13;5013398;28;20235;-79
2023/04/02 10:15:31;;;;;;;3.17;1.53;;;;;;;5.55;67.83;101855.75;5013742;28;20203;-78
2023/04/02 10:18:06;;;;;;;2.70;1.33;;;;;;;5.56;68.41;101886.00;5014692;28;20237;-80
2023/04/02 10:20:36;;;;;;;1.40;1.20;;;;;;;5.55;69.25;101888.56;5013581;28;20230;-81
2023/04/02 10:23:02;;;;;;;2.13;1.20;;;;;;;5.51;67.95;101900.56;5013905;28;20656;-78
2023/04/02 10:25:39;;;;;;;2.10;1.30;;;;;;;5.46;68.80;101906.44;5028570;28;20267;-82
2023/04/02 10:28:12;;;;;;;2.43;1.80;;;;;;;5.46;68.72;101912.50;5049359;28;20201;-81
2023/04/02 10:30:51;;;;;;;1.70;1.60;;;;;;;5.59;68.13;101911.13;5059139;28;20238;-79
2023/04/02 10:33:26;;;;;;;3.13;2.27;;;;;;;5.68;65.81;101933.78;5041396;28;20225;-79
2023/04/02 10:36:02;;;;;;;3.73;1.60;;;;;;;5.59;67.94;101975.88;5041106;28;20214;-81
2023/04/02 10:38:38;;;;;;;3.38;2.22;;;;;;;5.65;67.51;101968.25;5043399;28;20445;-79
2023/04/02 10:41:23;;;;;;;4.50;3.13;;;;;;;5.86;67.02;101961.84;5043085;28;20633;-78
2023/04/02 10:44:26;;;;;;;3.80;2.20;;;;;;;5.95;65.94;101981.13;5041134;28;20245;-79
2023/04/02 10:47:04;;;;;;;2.20;2.00;;;;;;;6.10;65.18;102003.09;5043989;28;20236;-79
2023/04/02 10:49:40;;;;;;;3.27;1.80;;;;;;;6.12;64.77;102056.72;5047766;28;20240;-78
2023/04/02 10:52:12;;;;;;;2.60;2.10;;;;;;;6.10;64.95;102094.69;5041668;28;20202;-79
2023/04/02 10:54:47;;;;;;;2.37;2.17;;;;;;;6.11;64.42;102098.19;5037101;28;20210;-78
2023/04/02 10:57:23;;;;;;;2.13;1.30;;;;;;;6.09;65.63;102113.69;5037492;28;20202;-78
2023/04/02 10:59:55;;;;;;;4.60;2.27;;;;;;;6.08;66.30;102098.97;5038986;28;20306;-78
2023/04/02 11:02:36;;;;;;;3.90;1.83;;;;;;;6.24;64.43;102095.03;5043808;28;20214;-79
2023/04/02 11:05:11;;;;;;;3.07;2.60;;;;;;;6.25;62.77;102114.97;5044060;28;20205;-77
2023/04/02 11:07:52;;;;;;;2.40;1.83;;;;;;;6.15;63.25;102164.84;5045243;28;20213;-78
2023/04/02 11:10:20;;;;;;;1.70;1.27;;;;;;;6.15;62.55;102178.66;5042331;28;20304;-78
2023/04/02 11:12:54;;;;;;;2.07;1.23;;;;;;;6.13;65.13;102185.53;5042499;28;20226;-77
2023/04/02 11:15:22;;;;;;;1.73;1.50;;;;;;;6.25;64.19;102156.47;5038912;28;20468;-79
2023/04/02 11:17:48;;;;;;;3.63;1.63;;;;;;;6.40;65.16;102171.53;5036549;28;20736;-79
2023/04/02 11:20:55;;;;;;;1.80;1.40;;;;;;;6.43;64.33;102139.63;5034336;28;20230;-79
2023/04/02 11:23:26;;;;;;;2.70;2.20;;;;;;;6.50;63.03;102146.72;5030767;28;20206;-79
2023/04/02 11:26:12;;;;;;;1.53;1.43;;;;;;;6.68;63.51;102159.25;5035825;28;20208;-79
2023/04/02 11:28:41;;;;;;;2.93;1.27;;;;;;;6.88;62.76;102165.84;5049997;28;20212;-79
2023/04/02 11:31:07;;;;;;;1.20;1.10;;;;;;;6.98;61.67;102192.91;5052972;28;20232;-79
2023/04/02 11:33:40;;;;;;;2.60;1.50;;;;;;;7.07;60.19;102218.19;5033274;28;20257;-79
2023/04/02 11:36:40;;;;;;;1.97;1.10;;;;;;;7.04;59.54;102259.69;5032681;28;20225;-78
2023/04/02 11:39:09;;;;;;;2.50;1.30;;;;;;;6.93;58.78;102299.22;5032345;28;20209;-78
2023/04/02 11:42:02;;;;;;;1.40;1.23;;;;;;;6.79;61.52;102325.66;5032986;28;20230;-79
2023/04/02 11:44:30;;;;;;;2.10;1.40;;;;;;;6.82;60.57;102305.84;5032577;28;20206;-79
2023/04/02 11:47:17;;;;;;;2.37;1.30;;;;;;;6.69;62.26;102320.19;5033258;28;20210;-79
2023/04/02 11:50:03;;;;;;;2.20;1.50;;;;;;;6.64;62.34;102293.25;5033182;28;20240;-78
2023/04/02 11:52:35;;;;;;;1.93;1.40;;;;;;;6.74;62.75;102266.72;5032330;28;20209;-79
2023/04/02 11:55:31;;;;;;;1.87;1.37;;;;;;;7.06;59.83;102269.25;5032710;28;20279;-79
2023/04/02 11:58:22;;;;;;;2.20;1.40;;;;;;;7.23;59.99;102300.81;5029134;28;20198;-78